Ashland, Oregon
Current Conditions -  °F | °C
As of 5:53 PM on Wednesday 17 Dec 2014 (Local Time) from KMFR Reporting Station
Broken Clouds Broken Clouds  
Wind Chill: 48°   Ceiling: 8500
Heat Index: 48°   Visibility: 10mi
Dew Point: 43°   Wind: 3mph
Humidity: 83%   Direction: 310°NW
Pressure: 29.94"   Gusts: NA
Location:  42.2°N, 122.71°W
Report Text: KMFR 180153Z 31003KT 10SM FEW055 SCT070 BKN085 09/06 A2994 RMK AO2 SLP142 T00890061
Loading
Personal Weather Stations






























Interactive Weather Map New forecast layout! Learn more

10-Day Weather Forecast

Advertisements
Track Severe Weather on mobile